| time (UTC) | temp F | wind direction | speed MPH | gust MPH | rain 1hr in | rain 24hr in | rain mn in | humidity % | barometer mb |
| 20260510225540 | 72 | 116 | 0.0 | 1.0 | 0.00 | 0.01 | 0.01 | 63 | 1014.9 |
| 20260510225028 | 73 | 116 | 0.0 | 1.0 | 0.00 | 0.01 | 0.01 | 65 | 1014.8 |
| 20260510224545 | 73 | 116 | 0.0 | 2.0 | 0.00 | 0.01 | 0.01 | 63 | 1014.8 |
| 20260510224033 | 73 | 117 | 0.0 | 2.0 | 0.00 | 0.01 | 0.01 | 62 | 1014.9 |
| 20260510223531 | 73 | 117 | 0.0 | 1.0 | 0.00 | 0.01 | 0.01 | 62 | 1014.8 |
| 20260510223018 | 73 | 117 | 0.0 | 3.0 | 0.00 | 0.01 | 0.01 | 64 | 1014.8 |
| 20260510222535 | 73 | 118 | 0.0 | 4.0 | 0.00 | 0.01 | 0.01 | 64 | 1014.8 |
| 20260510222044 | 73 | 63 | 1.0 | 0.0 | 0.00 | 0.00 | 0.01 | 64 | 1014.6 |
| 20260510221518 | 73 | 136 | 3.0 | 7.0 | 0.00 | 0.01 | 0.01 | 63 | 1014.8 |
| 20260510220545 | 73 | 128 | 0.0 | 2.0 | 0.00 | 0.01 | 0.01 | 65 | 1014.7 |
| 20260510220041 | 74 | 130 | 0.0 | 4.0 | 0.00 | 0.01 | 0.01 | 64 | 1014.7 |
| 20260510215537 | 74 | 130 | 0.0 | 4.0 | 0.00 | 0.01 | 0.01 | 65 | 1014.6 |
| 20260510215034 | 74 | 130 | 0.0 | 1.0 | 0.00 | 0.01 | 0.01 | 62 | 1014.6 |
| 20260510214542 | 75 | 131 | 0.0 | 5.0 | 0.00 | 0.01 | 0.01 | 63 | 1014.4 |
| 20260510214027 | 75 | 150 | 0.0 | 1.0 | 0.00 | 0.01 | 0.01 | 62 | 1014.2 |
| 20260510213519 | 75 | 144 | 0.0 | 1.0 | 0.00 | 0.01 | 0.01 | 63 | 1014.2 |
| 20260510213036 | 76 | 194 | 0.0 | 3.0 | 0.00 | 0.01 | 0.01 | 63 | 1014.3 |
| 20260510212524 | 76 | 223 | 0.0 | 3.0 | 0.00 | 0.01 | 0.01 | 63 | 1014.3 |
| 20260510212021 | 76 | 75 | 0.0 | 2.0 | 0.00 | 0.01 | 0.01 | 63 | 1014.2 |
| 20260510211518 | 75 | 154 | 0.0 | 3.0 | 0.00 | 0.01 | 0.01 | 66 | 1014.2 |
| 20260510211036 | 75 | 206 | 0.0 | 0.0 | 0.00 | 0.00 | 0.01 | 64 | 1013.8 |
| 20260510210520 | 75 | 206 | 0.0 | 3.0 | 0.00 | 0.01 | 0.01 | 61 | 1014.0 |
| 20260510210038 | 75 | 121 | 327.0 | 327.0 | 0.00 | 0.00 | 0.01 | 68 | 1013.9 |
| 20260510205525 | 75 | 121 | 0.0 | 3.0 | 0.00 | 0.01 | 0.01 | 64 | 1014.0 |
| 20260510205042 | 75 | 118 | 0.0 | 3.0 | 0.00 | 0.01 | 0.01 | 64 | 1013.9 |
| 20260510204525 | 75 | 137 | 0.0 | 3.0 | 0.00 | 0.01 | 0.01 | 66 | 1014.0 |
| 20260510204051 | 76 | 187 | 0.0 | 1.0 | 0.00 | 0.01 | 0.01 | 65 | 1014.0 |
| 20260510203547 | 75 | 163 | 0.0 | 1.0 | 0.00 | 0.01 | 0.01 | 66 | 1014.1 |
| 20260510203043 | 75 | 163 | 0.0 | 0.0 | 0.00 | 0.01 | 0.01 | 68 | 1014.0 |
| 20260510202530 | 74 | 163 | 0.0 | 0.0 | 0.00 | 0.01 | 0.01 | 70 | 1013.9 |
| 20260510202019 | 74 | 126 | 0.0 | 1.0 | 0.00 | 0.01 | 0.01 | 67 | 1014.0 |
| 20260510201535 | 74 | 126 | 0.0 | 1.0 | 0.00 | 0.01 | 0.01 | 68 | 1014.1 |
| 20260510201113 | 74 | 126 | 0.0 | 4.0 | 0.00 | 0.01 | 0.01 | 68 | 1014.1 |
| 20260510200525 | 75 | 126 | 1.0 | 4.0 | 0.00 | 0.01 | 0.01 | 64 | 1014.1 |
| 20260510200033 | 75 | 150 | 0.0 | 1.0 | 0.00 | 0.01 | 0.01 | 65 | 1014.1 |
| 20260510195531 | 75 | 150 | 0.0 | 1.0 | 0.00 | 0.01 | 0.01 | 70 | 1014.2 |
| 20260510194533 | 74 | 150 | 0.0 | 0.0 | 0.01 | 0.01 | 0.01 | 67 | 1014.3 |
| 20260510194022 | 74 | 151 | 0.0 | 0.0 | 0.01 | 0.01 | 0.01 | 69 | 1014.3 |
| 20260510193539 | 74 | 196 | 0.0 | 0.0 | 0.01 | 0.01 | 0.01 | 67 | 1014.3 |
| 20260510193027 | 74 | 211 | 0.0 | 1.0 | 0.01 | 0.01 | 0.01 | 68 | 1014.3 |
| 20260510192533 | 74 | 209 | 0.0 | 5.0 | 0.01 | 0.01 | 0.01 | 70 | 1014.4 |
| 20260510192021 | 74 | 188 | 0.0 | 4.0 | 0.01 | 0.01 | 0.01 | 74 | 1014.4 |
| 20260510191538 | 73 | 133 | 0.0 | 4.0 | 0.01 | 0.01 | 0.01 | 71 | 1014.4 |
| 20260510191051 | 73 | 96 | 0.0 | 3.0 | 0.01 | 0.01 | 0.01 | 74 | 1014.5 |
| 20260510190520 | 73 | 130 | 1.0 | 3.0 | 0.01 | 0.01 | 0.01 | 74 | 1014.5 |
| 20260510190032 | 72 | 128 | 0.0 | 3.0 | 0.01 | 0.01 | 0.01 | 73 | 1014.5 |
| 20260510185520 | 72 | 96 | 0.0 | 10.0 | 0.01 | 0.01 | 0.01 | 70 | 1014.6 |
| 20260510185034 | 73 | 80 | 1.0 | 10.0 | 0.01 | 0.01 | 0.01 | 66 | 1014.6 |
| 20260510184522 | 74 | 185 | 0.0 | 3.0 | 0.00 | 0.00 | 0.00 | 62 | 1014.6 |
| 20260510184019 | 75 | 101 | 0.0 | 8.0 | 0.00 | 0.00 | 0.00 | 60 | 1014.4 |
| 20260510183556 | 75 | 202 | 1.0 | 8.0 | 0.00 | 0.00 | 0.00 | 58 | 1014.3 |
| 20260510183023 | 76 | 253 | 0.0 | 8.0 | 0.00 | 0.00 | 0.00 | 61 | 1014.3 |
| 20260510182541 | 76 | 184 | 0.0 | 8.0 | 0.00 | 0.00 | 0.00 | 56 | 1014.3 |
| 20260510182055 | 76 | 266 | 1.0 | 6.0 | 0.00 | 0.00 | 0.00 | 58 | 1014.3 |
| 20260510181522 | 76 | 294 | 1.0 | 4.0 | 0.00 | 0.00 | 0.00 | 57 | 1014.2 |
| 20260510181039 | 76 | 196 | 0.0 | 4.0 | 0.00 | 0.00 | 0.00 | 58 | 1014.1 |
| 20260510180526 | 76 | 265 | 1.0 | 6.0 | 0.00 | 0.00 | 0.00 | 56 | 1014.2 |
| 20260510175520 | 76 | 252 | 4.0 | 7.0 | 0.00 | 0.00 | 0.00 | 60 | 1014.2 |
| 20260510175107 | 76 | 269 | 0.0 | 7.0 | 0.00 | 0.00 | 0.00 | 59 | 1014.2 |
| 20260510174538 | 76 | 281 | 5.0 | 7.0 | 0.00 | 0.00 | 0.00 | 62 | 1014.2 |
| 20260510174030 | 76 | 261 | 1.0 | 6.0 | 0.00 | 0.00 | 0.00 | 61 | 1014.1 |
| 20260510173528 | 76 | 123 | 1.0 | 4.0 | 0.00 | 0.00 | 0.00 | 59 | 1014.1 |
| 20260510173034 | 76 | 277 | 0.0 | 5.0 | 0.00 | 0.00 | 0.00 | 60 | 1014.1 |
| 20260510172531 | 76 | 259 | 0.0 | 6.0 | 0.00 | 0.00 | 0.00 | 58 | 1014.2 |
| 20260510172019 | 76 | 320 | 1.0 | 6.0 | 0.00 | 0.00 | 0.00 | 58 | 1014.2 |
| 20260510171104 | 75 | 76 | 0.0 | 8.0 | 0.00 | 0.00 | 0.00 | 61 | 1014.2 |
| 20260510170022 | 75 | 271 | 0.0 | 5.0 | 0.00 | 0.00 | 0.00 | 63 | 1014.2 |
| 20260510165519 | 74 | 288 | 0.0 | 3.0 | 0.00 | 0.00 | 0.00 | 66 | 1014.3 |
| 20260510165027 | 73 | 262 | 0.0 | 0.0 | 0.00 | 0.00 | 0.00 | 63 | 1014.4 |
| 20260510164523 | 73 | 205 | 327.0 | 327.0 | 0.00 | 0.00 | 0.00 | 62 | 1014.2 |
| 20260510164043 | 73 | 67 | 0.0 | 3.0 | 0.00 | 0.00 | 0.00 | 62 | 1014.4 |
| 20260510163539 | 73 | 69 | 0.0 | 3.0 | 0.00 | 0.00 | 0.00 | 61 | 1014.4 |
| 20260510163026 | 74 | 5 | 0.0 | 1.0 | 0.00 | 0.00 | 0.00 | 59 | 1014.4 |
| 20260510162544 | 74 | 220 | 0.0 | 1.0 | 0.00 | 0.00 | 0.00 | 60 | 1014.3 |
| 20260510162031 | 74 | 220 | 0.0 | 3.0 | 0.00 | 0.00 | 0.00 | 58 | 1014.3 |
| 20260510161527 | 74 | 220 | 0.0 | 5.0 | 0.00 | 0.00 | 0.00 | 65 | 1014.3 |
| 20260510161033 | 74 | 220 | 0.0 | 0.0 | 0.00 | 0.00 | 0.00 | 59 | 1014.2 |
| 20260510160528 | 73 | 192 | 0.0 | 4.0 | 0.00 | 0.00 | 0.00 | 60 | 1014.4 |
| 20260510160100 | 73 | 264 | 1.0 | 8.0 | 0.00 | 0.00 | 0.00 | 63 | 1014.4 |
| 20260510155538 | 73 | 284 | 2.0 | 10.0 | 0.00 | 0.00 | 0.00 | 60 | 1014.3 |
| 20260510154525 | 74 | 305 | 1.0 | 9.0 | 0.00 | 0.00 | 0.00 | 58 | 1014.3 |
| 20260510154021 | 74 | 323 | 2.0 | 7.0 | 0.00 | 0.00 | 0.00 | 65 | 1014.3 |
| 20260510153525 | 73 | 252 | 1.0 | 6.0 | 0.00 | 0.00 | 0.00 | 59 | 1014.3 |
| 20260510153022 | 73 | 251 | 1.0 | 4.0 | 0.00 | 0.00 | 0.00 | 59 | 1014.2 |
| 20260510152531 | 73 | 307 | 0.0 | 6.0 | 0.00 | 0.00 | 0.00 | 61 | 1014.3 |
| 20260510152048 | 74 | 246 | 2.0 | 9.0 | 0.00 | 0.00 | 0.00 | 59 | 1014.2 |
| 20260510151527 | 74 | 262 | 3.0 | 9.0 | 0.00 | 0.00 | 0.00 | 63 | 1014.2 |
| 20260510151021 | 73 | 217 | 1.0 | 8.0 | 0.00 | 0.00 | 0.00 | 66 | 1014.2 |
| 20260510150538 | 73 | 244 | 5.0 | 8.0 | 0.00 | 0.00 | 0.00 | 63 | 1014.1 |
| 20260510150047 | 72 | 261 | 0.0 | 6.0 | 0.00 | 0.00 | 0.00 | 64 | 1014.0 |
| 20260510145522 | 71 | 263 | 0.0 | 12.0 | 0.00 | 0.00 | 0.00 | 63 | 1014.1 |
| 20260510145030 | 71 | 258 | 3.0 | 12.0 | 0.00 | 0.00 | 0.00 | 62 | 1014.0 |
| 20260510144528 | 71 | 263 | 4.0 | 9.0 | 0.00 | 0.00 | 0.00 | 64 | 1014.2 |
| 20260510144016 | 71 | 266 | 2.0 | 8.0 | 0.00 | 0.00 | 0.00 | 64 | 1014.2 |
| 20260510143533 | 72 | 248 | 5.0 | 10.0 | 0.00 | 0.00 | 0.00 | 67 | 1014.2 |
| 20260510143021 | 71 | 263 | 2.0 | 10.0 | 0.00 | 0.00 | 0.00 | 67 | 1014.3 |
| 20260510142058 | 70 | 244 | 4.0 | 9.0 | 0.00 | 0.00 | 0.00 | 68 | 1014.3 |
| 20260510141525 | 70 | 288 | 3.0 | 9.0 | 0.00 | 0.00 | 0.00 | 66 | 1014.3 |
| 20260510141042 | 70 | 331 | 2.0 | 7.0 | 0.00 | 0.00 | 0.00 | 65 | 1014.4 |
| 20260510140531 | 69 | 297 | 1.0 | 7.0 | 0.00 | 0.00 | 0.00 | 69 | 1014.3 |
| 20260510140028 | 69 | 254 | 4.0 | 7.0 | 0.00 | 0.00 | 0.00 | 68 | 1014.2 |
| 20260510135516 | 68 | 246 | 2.0 | 6.0 | 0.00 | 0.00 | 0.00 | 72 | 1014.2 |
| 20260510135113 | 68 | 244 | 1.0 | 6.0 | 0.00 | 0.00 | 0.00 | 72 | 1014.2 |
| 20260510134527 | 67 | 240 | 1.0 | 4.0 | 0.00 | 0.00 | 0.00 | 77 | 1014.4 |
| 20260510134100 | 66 | 299 | 0.0 | 2.0 | 0.00 | 0.00 | 0.00 | 75 | 1014.5 |
| 20260510133527 | 66 | 65 | 0.0 | 0.0 | 0.00 | 0.00 | 0.00 | 82 | 1014.4 |
| 20260510133024 | 65 | 188 | 0.0 | 0.0 | 0.00 | 0.00 | 0.00 | 82 | 1014.4 |
| 20260510132521 | 65 | 188 | 0.0 | 0.0 | 0.00 | 0.00 | 0.00 | 83 | 1014.4 |
| 20260510132038 | 65 | 188 | 0.0 | 0.0 | 0.00 | 0.00 | 0.00 | 82 | 1014.3 |
| 20260510131525 | 64 | 188 | 0.0 | 0.0 | 0.00 | 0.00 | 0.00 | 82 | 1014.3 |
| 20260510131022 | 63 | 188 | 0.0 | 0.0 | 0.00 | 0.00 | 0.00 | 89 | 1014.3 |
| 20260510130530 | 63 | 188 | 0.0 | 1.0 | 0.00 | 0.00 | 0.00 | 90 | 1014.2 |
| 20260510130027 | 61 | 188 | 0.0 | 1.0 | 0.00 | 0.00 | 0.00 | 93 | 1014.2 |
| 20260510125535 | 60 | 190 | 0.0 | 0.0 | 0.00 | 0.00 | 0.00 | 93 | 1014.2 |
| 20260510125032 | 59 | 190 | 0.0 | 0.0 | 0.00 | 0.00 | 0.00 | 95 | 1014.2 |
| 20260510124549 | 58 | 190 | 0.0 | 0.0 | 0.00 | 0.00 | 0.00 | 96 | 1014.2 |
| 20260510124016 | 57 | 190 | 0.0 | 0.0 | 0.00 | 0.00 | 0.00 | 96 | 1014.2 |
| 20260510123533 | 57 | 190 | 0.0 | 0.0 | 0.00 | 0.00 | 0.00 | 97 | 1014.3 |
| 20260510123021 | 56 | 190 | 0.0 | 0.0 | 0.00 | 0.00 | 0.00 | 97 | 1014.1 |
| 20260510122538 | 55 | 300 | 0.0 | 0.0 | 0.00 | 0.00 | 0.00 | 97 | 1014.0 |
| 20260510122026 | 55 | 300 | 0.0 | 0.0 | 0.00 | 0.00 | 0.00 | 97 | 1013.9 |
| 20260510121543 | 55 | 300 | 0.0 | 0.0 | 0.00 | 0.00 | 0.00 | 97 | 1013.9 |
| 20260510121031 | 54 | 292 | 0.0 | 0.0 | 0.00 | 0.00 | 0.00 | 97 | 1014.0 |
| 20260510120527 | 53 | 288 | 0.0 | 0.0 | 0.00 | 0.00 | 0.00 | 97 | 1014.0 |
| 20260510120016 | 53 | 288 | 0.0 | 0.0 | 0.00 | 0.00 | 0.00 | 97 | 1014.0 |
| 20260510115533 | 52 | 288 | 0.0 | 0.0 | 0.00 | 0.00 | 0.00 | 97 | 1014.0 |
| 20260510115028 | 52 | 288 | 0.0 | 0.0 | 0.00 | 0.00 | 0.00 | 97 | 1013.9 |
| 20260510114517 | 52 | 288 | 0.0 | 0.0 | 0.00 | 0.00 | 0.00 | 97 | 1013.8 |
| 20260510114053 | 51 | 288 | 0.0 | 0.0 | 0.00 | 0.00 | 0.00 | 97 | 1013.8 |
| 20260510113606 | 51 | 254 | 0.0 | 0.0 | 0.00 | 0.00 | 0.00 | 97 | 1013.8 |
| 20260510113018 | 50 | 254 | 0.0 | 0.0 | 0.00 | 0.00 | 0.00 | 97 | 1013.7 |
| 20260510112522 | 49 | 254 | 0.0 | 0.0 | 0.00 | 0.00 | 0.00 | 97 | 1013.7 |
| 20260510112119 | 48 | 254 | 0.0 | 0.0 | 0.00 | 0.00 | 0.00 | 97 | 1013.6 |
| 20260510111518 | 47 | 254 | 0.0 | 0.0 | 0.00 | 0.00 | 0.00 | 97 | 1013.5 |
| 20260510111045 | 47 | 254 | 0.0 | 0.0 | 0.00 | 0.00 | 0.00 | 96 | 1013.4 |
| 20260510110551 | 46 | 254 | 0.0 | 0.0 | 0.00 | 0.00 | 0.00 | 96 | 1013.2 |
| 20260510110028 | 46 | 254 | 0.0 | 0.0 | 0.00 | 0.00 | 0.00 | 96 | 1013.1 |
| 20260510105516 | 46 | 254 | 0.0 | 0.0 | 0.00 | 0.00 | 0.00 | 96 | 1013.2 |
| 20260510105033 | 46 | 254 | 0.0 | 0.0 | 0.00 | 0.00 | 0.00 | 96 | 1013.0 |
| 20260510104521 | 46 | 254 | 0.0 | 0.0 | 0.00 | 0.00 | 0.00 | 96 | 1013.0 |
| 20260510104038 | 46 | 254 | 0.0 | 0.0 | 0.00 | 0.00 | 0.00 | 96 | 1013.0 |
| 20260510103526 | 46 | 254 | 0.0 | 0.0 | 0.00 | 0.00 | 0.00 | 96 | 1012.9 |
| 20260510102522 | 46 | 254 | 0.0 | 0.0 | 0.00 | 0.00 | 0.00 | 96 | 1012.8 |
| 20260510102038 | 46 | 254 | 0.0 | 0.0 | 0.00 | 0.00 | 0.00 | 95 | 1012.7 |
| 20260510101527 | 46 | 254 | 0.0 | 0.0 | 0.00 | 0.00 | 0.00 | 96 | 1012.7 |
| 20260510101022 | 46 | 254 | 0.0 | 0.0 | 0.00 | 0.00 | 0.00 | 96 | 1012.7 |
| 20260510100624 | 47 | 254 | 0.0 | 0.0 | 0.00 | 0.00 | 0.00 | 96 | 1012.7 |
| 20260510100041 | 47 | 254 | 0.0 | 0.0 | 0.00 | 0.00 | 0.00 | 97 | 1012.8 |
| 20260510095519 | 47 | 254 | 0.0 | 0.0 | 0.00 | 0.00 | 0.00 | 96 | 1012.7 |
| 20260510095025 | 47 | 254 | 0.0 | 0.0 | 0.00 | 0.00 | 0.00 | 96 | 1012.6 |
| 20260510094522 | 46 | 254 | 0.0 | 0.0 | 0.00 | 0.00 | 0.00 | 96 | 1012.4 |
| 20260510094027 | 46 | 254 | 0.0 | 0.0 | 0.00 | 0.00 | 0.00 | 95 | 1012.2 |
| 20260510093524 | 46 | 254 | 0.0 | 0.0 | 0.00 | 0.00 | 0.00 | 95 | 1012.2 |
| 20260510093021 | 46 | 254 | 0.0 | 0.0 | 0.00 | 0.00 | 0.00 | 95 | 1012.3 |
| 20260510092536 | 47 | 254 | 0.0 | 0.0 | 0.00 | 0.00 | 0.00 | 96 | 1012.3 |
| 20260510092024 | 47 | 254 | 0.0 | 0.0 | 0.00 | 0.00 | 0.00 | 96 | 1012.2 |
| 20260510091541 | 47 | 254 | 0.0 | 0.0 | 0.00 | 0.00 | 0.00 | 96 | 1012.1 |
| 20260510091028 | 46 | 254 | 0.0 | 0.0 | 0.00 | 0.00 | 0.00 | 95 | 1012.0 |
| 20260510090526 | 47 | 254 | 0.0 | 0.0 | 0.00 | 0.00 | 0.00 | 95 | 1012.0 |
| 20260510090040 | 47 | 254 | 0.0 | 0.0 | 0.00 | 0.00 | 0.00 | 95 | 1012.0 |
| 20260510085528 | 47 | 254 | 0.0 | 0.0 | 0.00 | 0.00 | 0.00 | 95 | 1012.0 |
| 20260510085016 | 48 | 254 | 0.0 | 0.0 | 0.00 | 0.00 | 0.00 | 96 | 1012.0 |
| 20260510084523 | 48 | 254 | 0.0 | 0.0 | 0.00 | 0.00 | 0.00 | 96 | 1012.0 |
| 20260510084031 | 48 | 254 | 0.0 | 0.0 | 0.00 | 0.00 | 0.00 | 96 | 1011.8 |
| 20260510083528 | 48 | 254 | 0.0 | 0.0 | 0.00 | 0.00 | 0.00 | 96 | 1011.8 |
| 20260510083016 | 47 | 254 | 0.0 | 0.0 | 0.00 | 0.00 | 0.00 | 96 | 1011.7 |
| 20260510082533 | 47 | 254 | 0.0 | 0.0 | 0.00 | 0.00 | 0.00 | 96 | 1011.6 |
| 20260510082020 | 47 | 254 | 0.0 | 0.0 | 0.00 | 0.00 | 0.00 | 95 | 1011.6 |
| 20260510081537 | 47 | 254 | 0.0 | 0.0 | 0.00 | 0.00 | 0.00 | 95 | 1011.6 |
| 20260510081026 | 48 | 254 | 0.0 | 0.0 | 0.00 | 0.00 | 0.00 | 95 | 1011.6 |
| 20260510080543 | 48 | 254 | 0.0 | 0.0 | 0.00 | 0.00 | 0.00 | 95 | 1011.6 |
| 20260510080031 | 49 | 254 | 0.0 | 0.0 | 0.00 | 0.00 | 0.00 | 95 | 1011.6 |
| 20260510075554 | 49 | 254 | 0.0 | 0.0 | 0.00 | 0.00 | 0.00 | 96 | 1011.5 |
| 20260510075021 | 49 | 254 | 0.0 | 0.0 | 0.00 | 0.00 | 0.00 | 96 | 1011.5 |
| 20260510074538 | 50 | 254 | 0.0 | 0.0 | 0.00 | 0.00 | 0.00 | 96 | 1011.4 |
| 20260510074026 | 49 | 254 | 0.0 | 0.0 | 0.00 | 0.00 | 0.00 | 96 | 1011.4 |
| 20260510073542 | 49 | 254 | 0.0 | 0.0 | 0.00 | 0.00 | 0.00 | 96 | 1011.4 |
| 20260510073148 | 49 | 254 | 0.0 | 0.0 | 0.00 | 0.00 | 0.00 | 96 | 1011.4 |
| 20260510072529 | 48 | 254 | 0.0 | 0.0 | 0.00 | 0.00 | 0.00 | 96 | 1011.4 |
| 20260510072017 | 48 | 254 | 0.0 | 0.0 | 0.00 | 0.00 | 0.00 | 96 | 1011.3 |
| 20260510071514 | 48 | 254 | 0.0 | 0.0 | 0.00 | 0.00 | 0.00 | 95 | 1011.3 |
| 20260510071032 | 48 | 254 | 0.0 | 0.0 | 0.00 | 0.00 | 0.00 | 95 | 1011.3 |
| 20260510070520 | 48 | 254 | 0.0 | 0.0 | 0.00 | 0.00 | 0.00 | 95 | 1011.3 |
| 20260510070037 | 48 | 254 | 0.0 | 0.0 | 0.00 | 0.00 | 0.00 | 95 | 1011.3 |
| 20260510065525 | 48 | 254 | 0.0 | 0.0 | 0.00 | 0.00 | 0.00 | 95 | 1011.3 |
| 20260510065042 | 48 | 254 | 0.0 | 0.0 | 0.00 | 0.00 | 0.00 | 95 | 1011.3 |
| 20260510064530 | 48 | 254 | 0.0 | 0.0 | 0.00 | 0.00 | 0.00 | 95 | 1011.3 |
| 20260510064026 | 48 | 254 | 0.0 | 0.0 | 0.00 | 0.00 | 0.00 | 95 | 1011.3 |
| 20260510063515 | 48 | 254 | 0.0 | 0.0 | 0.00 | 0.00 | 0.00 | 95 | 1011.4 |
| 20260510063051 | 48 | 254 | 0.0 | 0.0 | 0.00 | 0.00 | 0.00 | 95 | 1011.4 |
| 20260510062527 | 48 | 254 | 0.0 | 0.0 | 0.00 | 0.00 | 0.00 | 95 | 1011.4 |
| 20260510062100 | 48 | 254 | 0.0 | 0.0 | 0.00 | 0.00 | 0.00 | 94 | 1011.4 |
| 20260510061524 | 48 | 254 | 0.0 | 0.0 | 0.00 | 0.00 | 0.00 | 94 | 1011.4 |
| 20260510061021 | 49 | 254 | 0.0 | 0.0 | 0.00 | 0.00 | 0.00 | 95 | 1011.5 |
| 20260510060529 | 49 | 254 | 0.0 | 0.0 | 0.00 | 0.00 | 0.00 | 95 | 1011.5 |
| 20260510060026 | 49 | 254 | 0.0 | 0.0 | 0.00 | 0.00 | 0.00 | 94 | 1011.5 |
| 20260510055514 | 49 | 254 | 0.0 | 0.0 | 0.00 | 0.00 | 0.00 | 94 | 1011.5 |
| 20260510055031 | 50 | 254 | 0.0 | 0.0 | 0.00 | 0.00 | 0.00 | 94 | 1011.5 |
| 20260510054608 | 50 | 254 | 0.0 | 0.0 | 0.00 | 0.00 | 0.00 | 95 | 1011.5 |
| 20260510054040 | 50 | 254 | 0.0 | 0.0 | 0.00 | 0.00 | 0.00 | 95 | 1011.6 |
| 20260510053527 | 51 | 254 | 0.0 | 0.0 | 0.00 | 0.00 | 0.00 | 95 | 1011.6 |
| 20260510053025 | 51 | 254 | 0.0 | 0.0 | 0.00 | 0.00 | 0.00 | 95 | 1011.6 |
| 20260510052542 | 52 | 254 | 0.0 | 0.0 | 0.00 | 0.00 | 0.00 | 96 | 1011.6 |
| 20260510052030 | 52 | 254 | 0.0 | 0.0 | 0.00 | 0.00 | 0.00 | 96 | 1011.6 |
| 20260510051518 | 51 | 254 | 0.0 | 0.0 | 0.00 | 0.00 | 0.00 | 96 | 1011.6 |
| 20260510051016 | 50 | 254 | 0.0 | 0.0 | 0.00 | 0.00 | 0.00 | 96 | 1011.7 |
| 20260510050524 | 49 | 254 | 0.0 | 0.0 | 0.00 | 0.00 | 0.00 | 95 | 1011.7 |
| 20260510050021 | 49 | 254 | 0.0 | 0.0 | 0.00 | 0.00 | 0.00 | 95 | 1011.7 |
| 20260510045529 | 49 | 254 | 0.0 | 0.0 | 0.00 | 0.00 | 0.00 | 95 | 1011.7 |
| 20260510045026 | 49 | 254 | 0.0 | 0.0 | 0.00 | 0.00 | 0.00 | 95 | 1011.7 |
| 20260510044543 | 50 | 254 | 0.0 | 0.0 | 0.00 | 0.00 | 0.00 | 95 | 1011.7 |
| 20260510044055 | 50 | 254 | 0.0 | 0.0 | 0.00 | 0.00 | 0.00 | 95 | 1011.8 |
| 20260510043522 | 50 | 254 | 0.0 | 0.0 | 0.00 | 0.00 | 0.00 | 94 | 1011.8 |
| 20260510043039 | 50 | 254 | 0.0 | 0.0 | 0.00 | 0.00 | 0.00 | 95 | 1011.8 |
| 20260510042523 | 50 | 254 | 0.0 | 0.0 | 0.00 | 0.00 | 0.00 | 95 | 1011.9 |
| 20260510042020 | 50 | 254 | 0.0 | 0.0 | 0.00 | 0.00 | 0.00 | 95 | 1011.9 |
| 20260510041528 | 50 | 254 | 0.0 | 0.0 | 0.00 | 0.00 | 0.00 | 95 | 1011.9 |
| 20260510041025 | 50 | 254 | 0.0 | 0.0 | 0.00 | 0.00 | 0.00 | 94 | 1011.9 |
| 20260510040542 | 50 | 254 | 0.0 | 0.0 | 0.00 | 0.00 | 0.00 | 93 | 1011.8 |
| 20260510040043 | 50 | 254 | 0.0 | 0.0 | 0.00 | 0.00 | 0.00 | 94 | 1011.9 |
| 20260510035540 | 50 | 254 | 0.0 | 0.0 | 0.00 | 0.00 | 0.00 | 94 | 1011.9 |
| 20260510035035 | 51 | 254 | 0.0 | 0.0 | 0.00 | 0.00 | 0.00 | 94 | 1011.9 |
| 20260510034524 | 51 | 254 | 0.0 | 0.0 | 0.00 | 0.00 | 0.00 | 94 | 1011.9 |
| 20260510034020 | 51 | 254 | 0.0 | 0.0 | 0.00 | 0.00 | 0.00 | 94 | 1011.8 |
| 20260510033537 | 52 | 254 | 0.0 | 0.0 | 0.00 | 0.00 | 0.00 | 95 | 1011.8 |
| 20260510033032 | 51 | 254 | 0.0 | 0.0 | 0.00 | 0.00 | 0.00 | 95 | 1011.8 |
| 20260510032529 | 51 | 254 | 0.0 | 0.0 | 0.00 | 0.00 | 0.00 | 94 | 1011.8 |
| 20260510032016 | 51 | 254 | 0.0 | 0.0 | 0.00 | 0.00 | 0.00 | 93 | 1011.8 |
| 20260510031534 | 52 | 254 | 0.0 | 0.0 | 0.00 | 0.00 | 0.00 | 94 | 1011.7 |
| 20260510031022 | 52 | 254 | 0.0 | 0.0 | 0.00 | 0.00 | 0.00 | 94 | 1011.7 |
| 20260510030540 | 51 | 254 | 0.0 | 0.0 | 0.00 | 0.00 | 0.00 | 93 | 1011.7 |
| 20260510030028 | 51 | 254 | 0.0 | 0.0 | 0.00 | 0.00 | 0.00 | 92 | 1011.7 |
| 20260510025541 | 52 | 254 | 0.0 | 0.0 | 0.00 | 0.00 | 0.00 | 93 | 1011.6 |
| 20260510025016 | 52 | 254 | 0.0 | 0.0 | 0.00 | 0.00 | 0.00 | 94 | 1011.5 |
| 20260510024543 | 52 | 254 | 0.0 | 0.0 | 0.00 | 0.00 | 0.00 | 94 | 1011.4 |
| 20260510024031 | 53 | 254 | 0.0 | 0.0 | 0.00 | 0.00 | 0.00 | 93 | 1011.4 |
| 20260510023536 | 53 | 254 | 0.0 | 0.0 | 0.00 | 0.00 | 0.00 | 94 | 1011.4 |
| 20260510023023 | 53 | 254 | 0.0 | 0.0 | 0.00 | 0.00 | 0.00 | 93 | 1011.3 |
| 20260510022540 | 53 | 254 | 0.0 | 0.0 | 0.00 | 0.00 | 0.00 | 92 | 1011.2 |
| 20260510022037 | 53 | 254 | 0.0 | 0.0 | 0.00 | 0.00 | 0.00 | 92 | 1011.1 |
| 20260510021525 | 53 | 254 | 0.0 | 0.0 | 0.00 | 0.00 | 0.00 | 92 | 1010.9 |
| 20260510021042 | 54 | 254 | 0.0 | 0.0 | 0.00 | 0.00 | 0.00 | 91 | 1010.8 |
| 20260510020538 | 54 | 254 | 0.0 | 0.0 | 0.00 | 0.00 | 0.00 | 92 | 1010.7 |
| 20260510020026 | 54 | 254 | 0.0 | 0.0 | 0.00 | 0.00 | 0.00 | 93 | 1010.7 |
| 20260510015604 | 54 | 254 | 0.0 | 0.0 | 0.00 | 0.00 | 0.00 | 92 | 1010.6 |
| 20260510015035 | 55 | 254 | 0.0 | 0.0 | 0.00 | 0.00 | 0.00 | 92 | 1010.6 |
| 20260510014523 | 55 | 254 | 0.0 | 0.0 | 0.00 | 0.00 | 0.00 | 92 | 1010.5 |
| 20260510014041 | 55 | 254 | 0.0 | 0.0 | 0.00 | 0.00 | 0.00 | 90 | 1010.5 |
| 20260510013536 | 55 | 254 | 0.0 | 0.0 | 0.00 | 0.00 | 0.00 | 89 | 1010.4 |
| 20260510012529 | 56 | 254 | 0.0 | 0.0 | 0.00 | 0.00 | 0.00 | 89 | 1010.2 |
| 20260510012026 | 57 | 254 | 0.0 | 0.0 | 0.00 | 0.00 | 0.00 | 89 | 1010.0 |
| 20260510011514 | 57 | 254 | 0.0 | 0.0 | 0.00 | 0.00 | 0.00 | 88 | 1010.0 |
| 20260510011032 | 57 | 254 | 0.0 | 0.0 | 0.00 | 0.00 | 0.00 | 86 | 1009.9 |
| 20260510010520 | 58 | 254 | 0.0 | 0.0 | 0.00 | 0.00 | 0.00 | 87 | 1009.9 |
| 20260510010030 | 58 | 254 | 0.0 | 0.0 | 0.00 | 0.00 | 0.00 | 85 | 1009.9 |
| 20260510005608 | 58 | 254 | 0.0 | 0.0 | 0.00 | 0.00 | 0.00 | 83 | 1009.9 |
| 20260510005020 | 59 | 254 | 0.0 | 0.0 | 0.00 | 0.00 | 0.00 | 84 | 1009.8 |
| 20260510004517 | 60 | 254 | 0.0 | 0.0 | 0.00 | 0.00 | 0.00 | 82 | 1009.7 |
| 20260510004025 | 60 | 254 | 0.0 | 0.0 | 0.00 | 0.00 | 0.00 | 81 | 1009.6 |
| 20260510003522 | 61 | 157 | 0.0 | 0.0 | 0.00 | 0.00 | 0.00 | 80 | 1009.6 |
| 20260510003030 | 62 | 218 | 0.0 | 0.0 | 0.00 | 0.00 | 0.00 | 79 | 1009.5 |
| 20260510002527 | 63 | 218 | 0.0 | 0.0 | 0.00 | 0.00 | 0.00 | 78 | 1009.5 |
| 20260510002015 | 64 | 218 | 0.0 | 0.0 | 0.00 | 0.00 | 0.00 | 76 | 1009.4 |
| 20260510001531 | 64 | 218 | 0.0 | 0.0 | 0.00 | 0.00 | 0.00 | 75 | 1009.4 |
| 20260510001028 | 65 | 218 | 0.0 | 0.0 | 0.00 | 0.00 | 0.00 | 74 | 1009.3 |
| 20260510000536 | 66 | 218 | 0.0 | 0.0 | 0.00 | 0.00 | 0.00 | 73 | 1009.2 |
| 20260510000052 | 66 | 218 | 0.0 | 0.0 | 0.00 | 0.00 | 0.00 | 71 | 1009.2 |
| 20260509235528 | 67 | 218 | 0.0 | 0.0 | 0.00 | 0.00 | 0.00 | 70 | 1009.1 |
| 20260509235016 | 67 | 218 | 327.0 | 327.0 | 0.00 | 0.00 | 0.00 | 69 | 1008.9 |
| 20260509234515 | 68 | 218 | 0.0 | 1.0 | 0.00 | 0.00 | 0.00 | 69 | 1009.1 |
| 20260509234023 | 68 | 218 | 327.0 | 327.0 | 0.00 | 0.00 | 0.00 | 68 | 1009.0 |
| 20260509233029 | 69 | 217 | 0.0 | 1.0 | 0.00 | 0.00 | 0.00 | 67 | 1009.0 |
| 20260509232526 | 69 | 217 | 0.0 | 4.0 | 0.00 | 0.00 | 0.00 | 64 | 1009.0 |
| 20260509232014 | 69 | 215 | 1.0 | 4.0 | 0.00 | 0.00 | 0.00 | 64 | 1009.0 |
| 20260509231531 | 70 | 296 | 1.0 | 4.0 | 0.00 | 0.00 | 0.00 | 63 | 1009.0 |
| 20260509231018 | 70 | 300 | 0.0 | 6.0 | 0.00 | 0.00 | 0.00 | 62 | 1009.1 |
| 20260509230622 | 70 | 291 | 1.0 | 6.0 | 0.00 | 0.00 | 0.00 | 62 | 1009.1 |
| 20260509230033 | 70 | 285 | 1.0 | 4.0 | 0.00 | 0.00 | 0.00 | 63 | 1009.0 |